sensor_id;sensor_type;location;lat;lon;timestamp;P1;durP1;ratioP1;P2;durP2;ratioP2
9413;SDS011;4746;35.664;139.738;2023-10-19T00:01:25;7.80;;;6.97;;
9413;SDS011;4746;35.664;139.738;2023-10-19T00:03:53;7.63;;;6.93;;
9413;SDS011;4746;35.664;139.738;2023-10-19T00:06:25;8.20;;;7.35;;
9413;SDS011;4746;35.664;139.738;2023-10-19T00:08:53;7.75;;;6.53;;
9413;SDS011;4746;35.664;139.738;2023-10-19T00:11:20;6.63;;;5.95;;
9413;SDS011;4746;35.664;139.738;2023-10-19T00:13:49;6.95;;;6.25;;
9413;SDS011;4746;35.664;139.738;2023-10-19T00:16:20;7.53;;;6.80;;
9413;SDS011;4746;35.664;139.738;2023-10-19T00:18:48;9.90;;;6.00;;
9413;SDS011;4746;35.664;139.738;2023-10-19T00:21:17;6.72;;;5.60;;
9413;SDS011;4746;35.664;139.738;2023-10-19T00:23:53;7.00;;;6.30;;
9413;SDS011;4746;35.664;139.738;2023-10-19T00:26:24;6.45;;;5.85;;
9413;SDS011;4746;35.664;139.738;2023-10-19T00:28:55;6.80;;;5.82;;
9413;SDS011;4746;35.664;139.738;2023-10-19T00:31:23;6.53;;;5.80;;
9413;SDS011;4746;35.664;139.738;2023-10-19T00:33:59;6.80;;;5.82;;
9413;SDS011;4746;35.664;139.738;2023-10-19T00:36:28;5.53;;;4.35;;
9413;SDS011;4746;35.664;139.738;2023-10-19T00:38:57;5.05;;;4.07;;
9413;SDS011;4746;35.664;139.738;2023-10-19T00:41:26;5.40;;;4.00;;
9413;SDS011;4746;35.664;139.738;2023-10-19T00:43:57;5.28;;;4.85;;
9413;SDS011;4746;35.664;139.738;2023-10-19T00:46:32;5.13;;;4.63;;
9413;SDS011;4746;35.664;139.738;2023-10-19T00:49:14;5.05;;;4.25;;
9413;SDS011;4746;35.664;139.738;2023-10-19T00:51:44;3.70;;;3.40;;
9413;SDS011;4746;35.664;139.738;2023-10-19T00:54:25;4.35;;;3.50;;
9413;SDS011;4746;35.664;139.738;2023-10-19T00:57:03;6.25;;;3.72;;
9413;SDS011;4746;35.664;139.738;2023-10-19T00:59:39;5.75;;;3.92;;
9413;SDS011;4746;35.664;139.738;2023-10-19T01:02:15;3.88;;;3.53;;
9413;SDS011;4746;35.664;139.738;2023-10-19T01:04:50;6.85;;;3.97;;
9413;SDS011;4746;35.664;139.738;2023-10-19T01:07:27;3.63;;;3.33;;
9413;SDS011;4746;35.664;139.738;2023-10-19T01:09:56;4.03;;;3.63;;
9413;SDS011;4746;35.664;139.738;2023-10-19T01:12:29;5.32;;;3.30;;
9413;SDS011;4746;35.664;139.738;2023-10-19T01:17:54;4.13;;;3.70;;
9413;SDS011;4746;35.664;139.738;2023-10-19T01:20:25;7.85;;;5.10;;
9413;SDS011;4746;35.664;139.738;2023-10-19T01:22:59;8.48;;;4.72;;
9413;SDS011;4746;35.664;139.738;2023-10-19T01:28:20;5.30;;;4.75;;
9413;SDS011;4746;35.664;139.738;2023-10-19T01:31:12;5.25;;;3.80;;
9413;SDS011;4746;35.664;139.738;2023-10-19T01:33:57;5.47;;;4.50;;
9413;SDS011;4746;35.664;139.738;2023-10-19T01:36:32;4.68;;;4.22;;
9413;SDS011;4746;35.664;139.738;2023-10-19T01:39:10;4.70;;;4.28;;
9413;SDS011;4746;35.664;139.738;2023-10-19T01:41:38;4.40;;;4.00;;
9413;SDS011;4746;35.664;139.738;2023-10-19T01:44:08;5.88;;;3.70;;
9413;SDS011;4746;35.664;139.738;2023-10-19T01:46:41;4.00;;;3.67;;
9413;SDS011;4746;35.664;139.738;2023-10-19T01:49:09;6.65;;;4.68;;
9413;SDS011;4746;35.664;139.738;2023-10-19T01:51:37;5.43;;;4.32;;
9413;SDS011;4746;35.664;139.738;2023-10-19T01:54:05;8.23;;;5.25;;
9413;SDS011;4746;35.664;139.738;2023-10-19T01:56:34;5.63;;;4.50;;
9413;SDS011;4746;35.664;139.738;2023-10-19T01:59:04;5.55;;;4.60;;
9413;SDS011;4746;35.664;139.738;2023-10-19T02:01:33;5.65;;;4.88;;
9413;SDS011;4746;35.664;139.738;2023-10-19T02:04:03;5.55;;;4.85;;
9413;SDS011;4746;35.664;139.738;2023-10-19T02:06:35;6.63;;;4.90;;
9413;SDS011;4746;35.664;139.738;2023-10-19T02:09:12;5.00;;;4.50;;
9413;SDS011;4746;35.664;139.738;2023-10-19T02:11:59;5.32;;;4.78;;
9413;SDS011;4746;35.664;139.738;2023-10-19T02:14:28;5.88;;;4.45;;
9413;SDS011;4746;35.664;139.738;2023-10-19T02:16:56;7.20;;;5.18;;
9413;SDS011;4746;35.664;139.738;2023-10-19T02:19:26;5.05;;;4.60;;
9413;SDS011;4746;35.664;139.738;2023-10-19T02:21:55;4.85;;;4.47;;
9413;SDS011;4746;35.664;139.738;2023-10-19T02:24:29;5.90;;;4.97;;
9413;SDS011;4746;35.664;139.738;2023-10-19T02:26:57;6.30;;;4.47;;
9413;SDS011;4746;35.664;139.738;2023-10-19T02:29:28;4.93;;;4.53;;
9413;SDS011;4746;35.664;139.738;2023-10-19T02:31:57;5.70;;;5.20;;
9413;SDS011;4746;35.664;139.738;2023-10-19T02:34:30;7.43;;;4.72;;
9413;SDS011;4746;35.664;139.738;2023-10-19T02:37:00;5.53;;;5.03;;
9413;SDS011;4746;35.664;139.738;2023-10-19T02:39:28;6.55;;;5.28;;
9413;SDS011;4746;35.664;139.738;2023-10-19T02:41:56;5.28;;;4.85;;
9413;SDS011;4746;35.664;139.738;2023-10-19T02:44:26;5.40;;;4.90;;
9413;SDS011;4746;35.664;139.738;2023-10-19T02:46:55;5.30;;;4.80;;
9413;SDS011;4746;35.664;139.738;2023-10-19T02:49:31;4.65;;;4.25;;
9413;SDS011;4746;35.664;139.738;2023-10-19T02:52:03;5.38;;;4.15;;
9413;SDS011;4746;35.664;139.738;2023-10-19T02:54:31;5.10;;;4.70;;
9413;SDS011;4746;35.664;139.738;2023-10-19T02:56:59;4.75;;;4.35;;
9413;SDS011;4746;35.664;139.738;2023-10-19T02:59:31;6.30;;;5.53;;
9413;SDS011;4746;35.664;139.738;2023-10-19T03:01:59;4.78;;;4.30;;
9413;SDS011;4746;35.664;139.738;2023-10-19T03:04:39;5.13;;;4.63;;
9413;SDS011;4746;35.664;139.738;2023-10-19T03:07:09;5.15;;;4.65;;
9413;SDS011;4746;35.664;139.738;2023-10-19T03:09:40;5.05;;;4.65;;
9413;SDS011;4746;35.664;139.738;2023-10-19T03:12:14;4.32;;;4.00;;
9413;SDS011;4746;35.664;139.738;2023-10-19T03:14:42;4.97;;;4.57;;
9413;SDS011;4746;35.664;139.738;2023-10-19T03:17:13;4.63;;;4.18;;
9413;SDS011;4746;35.664;139.738;2023-10-19T03:19:41;4.57;;;4.18;;
9413;SDS011;4746;35.664;139.738;2023-10-19T03:22:09;4.75;;;4.35;;
9413;SDS011;4746;35.664;139.738;2023-10-19T03:24:37;5.30;;;4.90;;
9413;SDS011;4746;35.664;139.738;2023-10-19T03:27:12;4.60;;;4.20;;
9413;SDS011;4746;35.664;139.738;2023-10-19T03:29:42;4.78;;;4.38;;
9413;SDS011;4746;35.664;139.738;2023-10-19T03:32:18;4.35;;;4.05;;
9413;SDS011;4746;35.664;139.738;2023-10-19T03:34:56;4.97;;;4.50;;
9413;SDS011;4746;35.664;139.738;2023-10-19T03:37:25;5.28;;;4.55;;
9413;SDS011;4746;35.664;139.738;2023-10-19T03:39:57;5.38;;;4.85;;
9413;SDS011;4746;35.664;139.738;2023-10-19T03:42:31;5.90;;;4.80;;
9413;SDS011;4746;35.664;139.738;2023-10-19T03:44:59;5.70;;;4.90;;
9413;SDS011;4746;35.664;139.738;2023-10-19T03:47:38;4.82;;;4.40;;
9413;SDS011;4746;35.664;139.738;2023-10-19T03:50:09;6.10;;;4.72;;
9413;SDS011;4746;35.664;139.738;2023-10-19T03:52:40;4.75;;;4.35;;
9413;SDS011;4746;35.664;139.738;2023-10-19T03:55:08;10.73;;;4.60;;
9413;SDS011;4746;35.664;139.738;2023-10-19T03:57:45;4.97;;;4.47;;
9413;SDS011;4746;35.664;139.738;2023-10-19T04:00:16;4.80;;;4.40;;
9413;SDS011;4746;35.664;139.738;2023-10-19T04:02:44;4.35;;;3.95;;
9413;SDS011;4746;35.664;139.738;2023-10-19T04:05:12;4.50;;;4.10;;
9413;SDS011;4746;35.664;139.738;2023-10-19T04:07:50;4.60;;;4.20;;
9413;SDS011;4746;35.664;139.738;2023-10-19T04:10:23;7.45;;;4.57;;
9413;SDS011;4746;35.664;139.738;2023-10-19T04:13:00;6.38;;;4.70;;
9413;SDS011;4746;35.664;139.738;2023-10-19T04:15:28;4.68;;;4.28;;
9413;SDS011;4746;35.664;139.738;2023-10-19T04:17:59;4.82;;;4.50;;
9413;SDS011;4746;35.664;139.738;2023-10-19T04:20:27;5.40;;;4.50;;
9413;SDS011;4746;35.664;139.738;2023-10-19T04:22:55;5.40;;;4.13;;
9413;SDS011;4746;35.664;139.738;2023-10-19T04:25:24;3.95;;;3.72;;
9413;SDS011;4746;35.664;139.738;2023-10-19T04:27:52;5.75;;;3.78;;
9413;SDS011;4746;35.664;139.738;2023-10-19T04:30:22;4.22;;;3.83;;
9413;SDS011;4746;35.664;139.738;2023-10-19T04:32:50;4.85;;;4.45;;
9413;SDS011;4746;35.664;139.738;2023-10-19T04:35:18;4.30;;;3.90;;
9413;SDS011;4746;35.664;139.738;2023-10-19T04:40:19;4.80;;;4.25;;
9413;SDS011;4746;35.664;139.738;2023-10-19T04:42:50;4.72;;;4.32;;
9413;SDS011;4746;35.664;139.738;2023-10-19T04:45:19;4.47;;;4.18;;
9413;SDS011;4746;35.664;139.738;2023-10-19T04:47:50;4.65;;;4.18;;
9413;SDS011;4746;35.664;139.738;2023-10-19T04:50:20;5.05;;;4.65;;
9413;SDS011;4746;35.664;139.738;2023-10-19T04:52:50;4.03;;;3.72;;
9413;SDS011;4746;35.664;139.738;2023-10-19T04:55:18;6.22;;;4.22;;
9413;SDS011;4746;35.664;139.738;2023-10-19T04:57:45;4.80;;;4.25;;
9413;SDS011;4746;35.664;139.738;2023-10-19T05:00:14;4.80;;;4.50;;
9413;SDS011;4746;35.664;139.738;2023-10-19T05:02:46;4.68;;;4.28;;
9413;SDS011;4746;35.664;139.738;2023-10-19T05:05:13;5.57;;;4.20;;
9413;SDS011;4746;35.664;139.738;2023-10-19T05:07:42;4.43;;;4.03;;
9413;SDS011;4746;35.664;139.738;2023-10-19T05:10:10;4.80;;;4.40;;
9413;SDS011;4746;35.664;139.738;2023-10-19T05:12:38;4.47;;;4.07;;
9413;SDS011;4746;35.664;139.738;2023-10-19T05:15:05;4.20;;;3.88;;
9413;SDS011;4746;35.664;139.738;2023-10-19T05:17:33;4.80;;;4.38;;
9413;SDS011;4746;35.664;139.738;2023-10-19T05:20:01;5.25;;;4.85;;
9413;SDS011;4746;35.664;139.738;2023-10-19T05:22:30;4.53;;;4.13;;
9413;SDS011;4746;35.664;139.738;2023-10-19T05:24:58;6.22;;;4.55;;
9413;SDS011;4746;35.664;139.738;2023-10-19T05:27:26;6.82;;;4.90;;
9413;SDS011;4746;35.664;139.738;2023-10-19T05:29:54;4.93;;;4.28;;
9413;SDS011;4746;35.664;139.738;2023-10-19T05:32:21;5.85;;;4.93;;
9413;SDS011;4746;35.664;139.738;2023-10-19T05:34:49;4.93;;;4.40;;
9413;SDS011;4746;35.664;139.738;2023-10-19T05:37:19;4.63;;;4.22;;
9413;SDS011;4746;35.664;139.738;2023-10-19T05:39:48;4.63;;;4.32;;
9413;SDS011;4746;35.664;139.738;2023-10-19T05:42:20;4.78;;;4.47;;
9413;SDS011;4746;35.664;139.738;2023-10-19T05:44:47;4.32;;;4.07;;
9413;SDS011;4746;35.664;139.738;2023-10-19T05:47:21;4.88;;;4.47;;
9413;SDS011;4746;35.664;139.738;2023-10-19T05:49:52;4.85;;;4.50;;
9413;SDS011;4746;35.664;139.738;2023-10-19T05:52:30;5.35;;;4.85;;
9413;SDS011;4746;35.664;139.738;2023-10-19T05:55:15;5.25;;;4.82;;
9413;SDS011;4746;35.664;139.738;2023-10-19T05:57:59;4.68;;;4.32;;
9413;SDS011;4746;35.664;139.738;2023-10-19T06:00:26;4.80;;;4.38;;
9413;SDS011;4746;35.664;139.738;2023-10-19T06:02:54;4.72;;;4.38;;
9413;SDS011;4746;35.664;139.738;2023-10-19T06:05:23;5.15;;;4.75;;
9413;SDS011;4746;35.664;139.738;2023-10-19T06:07:50;5.30;;;4.90;;
9413;SDS011;4746;35.664;139.738;2023-10-19T06:10:19;5.53;;;4.55;;
9413;SDS011;4746;35.664;139.738;2023-10-19T06:12:51;5.07;;;4.68;;
9413;SDS011;4746;35.664;139.738;2023-10-19T06:15:19;5.05;;;4.65;;
9413;SDS011;4746;35.664;139.738;2023-10-19T06:17:51;4.43;;;4.15;;
9413;SDS011;4746;35.664;139.738;2023-10-19T06:20:20;4.32;;;4.03;;
9413;SDS011;4746;35.664;139.738;2023-10-19T06:22:58;4.57;;;4.13;;
9413;SDS011;4746;35.664;139.738;2023-10-19T06:25:35;4.97;;;4.63;;
9413;SDS011;4746;35.664;139.738;2023-10-19T06:28:05;4.45;;;4.15;;
9413;SDS011;4746;35.664;139.738;2023-10-19T06:30:32;4.63;;;4.25;;
9413;SDS011;4746;35.664;139.738;2023-10-19T06:33:00;5.13;;;4.72;;
9413;SDS011;4746;35.664;139.738;2023-10-19T06:35:29;5.43;;;5.03;;
9413;SDS011;4746;35.664;139.738;2023-10-19T06:37:58;5.35;;;4.80;;
9413;SDS011;4746;35.664;139.738;2023-10-19T06:40:29;5.63;;;4.90;;
9413;SDS011;4746;35.664;139.738;2023-10-19T06:42:59;5.20;;;4.80;;
9413;SDS011;4746;35.664;139.738;2023-10-19T06:45:28;5.25;;;4.65;;
9413;SDS011;4746;35.664;139.738;2023-10-19T06:47:57;5.43;;;4.93;;
9413;SDS011;4746;35.664;139.738;2023-10-19T06:50:26;6.47;;;4.95;;
9413;SDS011;4746;35.664;139.738;2023-10-19T06:52:54;5.45;;;4.95;;
9413;SDS011;4746;35.664;139.738;2023-10-19T06:55:23;7.32;;;5.68;;
9413;SDS011;4746;35.664;139.738;2023-10-19T06:57:54;5.28;;;4.97;;
9413;SDS011;4746;35.664;139.738;2023-10-19T07:00:22;5.72;;;5.22;;
9413;SDS011;4746;35.664;139.738;2023-10-19T07:02:55;5.47;;;4.97;;
9413;SDS011;4746;35.664;139.738;2023-10-19T07:05:27;7.95;;;5.30;;
9413;SDS011;4746;35.664;139.738;2023-10-19T07:07:55;6.07;;;5.55;;
9413;SDS011;4746;35.664;139.738;2023-10-19T07:10:25;5.70;;;4.93;;
9413;SDS011;4746;35.664;139.738;2023-10-19T07:12:54;5.97;;;5.35;;
9413;SDS011;4746;35.664;139.738;2023-10-19T07:15:23;7.43;;;5.68;;
9413;SDS011;4746;35.664;139.738;2023-10-19T07:17:55;5.57;;;5.07;;
9413;SDS011;4746;35.664;139.738;2023-10-19T07:20:23;5.82;;;5.32;;
9413;SDS011;4746;35.664;139.738;2023-10-19T07:22:57;6.93;;;6.32;;
9413;SDS011;4746;35.664;139.738;2023-10-19T07:25:56;6.00;;;5.50;;
9413;SDS011;4746;35.664;139.738;2023-10-19T07:28:27;5.75;;;5.20;;
9413;SDS011;4746;35.664;139.738;2023-10-19T07:30:55;6.60;;;5.88;;
9413;SDS011;4746;35.664;139.738;2023-10-19T07:33:25;7.15;;;5.40;;
9413;SDS011;4746;35.664;139.738;2023-10-19T07:35:53;6.53;;;5.95;;
9413;SDS011;4746;35.664;139.738;2023-10-19T07:38:24;6.25;;;5.65;;
9413;SDS011;4746;35.664;139.738;2023-10-19T07:40:54;6.38;;;5.78;;
9413;SDS011;4746;35.664;139.738;2023-10-19T07:43:21;6.90;;;5.80;;
9413;SDS011;4746;35.664;139.738;2023-10-19T07:45:50;7.47;;;5.78;;
9413;SDS011;4746;35.664;139.738;2023-10-19T07:48:18;6.22;;;5.60;;
9413;SDS011;4746;35.664;139.738;2023-10-19T07:50:46;6.30;;;5.72;;
9413;SDS011;4746;35.664;139.738;2023-10-19T07:53:13;6.97;;;6.28;;
9413;SDS011;4746;35.664;139.738;2023-10-19T07:55:46;6.45;;;5.95;;
9413;SDS011;4746;35.664;139.738;2023-10-19T07:58:13;7.20;;;6.47;;
9413;SDS011;4746;35.664;139.738;2023-10-19T08:00:41;7.00;;;5.90;;
9413;SDS011;4746;35.664;139.738;2023-10-19T08:03:12;7.38;;;5.60;;
9413;SDS011;4746;35.664;139.738;2023-10-19T08:05:41;6.05;;;5.55;;
9413;SDS011;4746;35.664;139.738;2023-10-19T08:08:10;6.07;;;5.50;;
9413;SDS011;4746;35.664;139.738;2023-10-19T08:10:38;7.57;;;6.13;;
9413;SDS011;4746;35.664;139.738;2023-10-19T08:13:08;5.72;;;5.22;;
9413;SDS011;4746;35.664;139.738;2023-10-19T08:15:38;7.32;;;5.47;;
9413;SDS011;4746;35.664;139.738;2023-10-19T08:18:06;6.38;;;5.20;;
9413;SDS011;4746;35.664;139.738;2023-10-19T08:20:33;6.32;;;5.63;;
9413;SDS011;4746;35.664;139.738;2023-10-19T08:23:02;5.32;;;4.90;;
9413;SDS011;4746;35.664;139.738;2023-10-19T08:25:31;6.75;;;5.68;;
9413;SDS011;4746;35.664;139.738;2023-10-19T08:27:58;5.90;;;5.40;;
9413;SDS011;4746;35.664;139.738;2023-10-19T08:30:27;5.95;;;5.32;;
9413;SDS011;4746;35.664;139.738;2023-10-19T08:32:54;5.22;;;4.72;;
9413;SDS011;4746;35.664;139.738;2023-10-19T08:35:23;6.32;;;5.68;;
9413;SDS011;4746;35.664;139.738;2023-10-19T08:37:51;6.63;;;5.72;;
9413;SDS011;4746;35.664;139.738;2023-10-19T08:40:22;6.57;;;5.57;;
9413;SDS011;4746;35.664;139.738;2023-10-19T08:42:54;6.03;;;5.45;;
9413;SDS011;4746;35.664;139.738;2023-10-19T08:45:22;5.35;;;4.95;;
9413;SDS011;4746;35.664;139.738;2023-10-19T08:47:58;6.50;;;5.90;;
9413;SDS011;4746;35.664;139.738;2023-10-19T08:50:28;6.10;;;5.50;;
9413;SDS011;4746;35.664;139.738;2023-10-19T08:53:02;5.70;;;5.18;;
9413;SDS011;4746;35.664;139.738;2023-10-19T08:55:39;6.10;;;5.65;;
9413;SDS011;4746;35.664;139.738;2023-10-19T08:58:07;6.45;;;5.15;;
9413;SDS011;4746;35.664;139.738;2023-10-19T09:00:47;6.72;;;6.18;;
9413;SDS011;4746;35.664;139.738;2023-10-19T09:03:20;5.72;;;5.22;;
9413;SDS011;4746;35.664;139.738;2023-10-19T09:05:49;6.53;;;5.93;;
9413;SDS011;4746;35.664;139.738;2023-10-19T09:08:17;6.40;;;5.90;;
9413;SDS011;4746;35.664;139.738;2023-10-19T09:10:48;5.43;;;4.93;;
9413;SDS011;4746;35.664;139.738;2023-10-19T09:13:19;5.90;;;5.22;;
9413;SDS011;4746;35.664;139.738;2023-10-19T09:15:48;6.40;;;5.65;;
9413;SDS011;4746;35.664;139.738;2023-10-19T09:18:22;6.30;;;5.80;;
9413;SDS011;4746;35.664;139.738;2023-10-19T09:20:54;7.40;;;6.70;;
9413;SDS011;4746;35.664;139.738;2023-10-19T09:23:27;7.55;;;6.07;;
9413;SDS011;4746;35.664;139.738;2023-10-19T09:25:56;7.72;;;6.22;;
9413;SDS011;4746;35.664;139.738;2023-10-19T09:28:31;7.47;;;6.00;;
9413;SDS011;4746;35.664;139.738;2023-10-19T09:31:02;7.68;;;6.00;;
9413;SDS011;4746;35.664;139.738;2023-10-19T09:33:34;7.53;;;6.00;;
9413;SDS011;4746;35.664;139.738;2023-10-19T09:36:03;8.77;;;6.90;;
9413;SDS011;4746;35.664;139.738;2023-10-19T09:38:45;8.55;;;6.20;;
9413;SDS011;4746;35.664;139.738;2023-10-19T09:41:15;7.00;;;6.40;;
9413;SDS011;4746;35.664;139.738;2023-10-19T09:43:49;10.25;;;6.35;;
9413;SDS011;4746;35.664;139.738;2023-10-19T09:46:21;6.32;;;5.80;;
9413;SDS011;4746;35.664;139.738;2023-10-19T09:48:55;6.60;;;6.10;;
9413;SDS011;4746;35.664;139.738;2023-10-19T09:51:24;7.22;;;6.53;;
9413;SDS011;4746;35.664;139.738;2023-10-19T09:54:04;6.85;;;6.15;;
9413;SDS011;4746;35.664;139.738;2023-10-19T09:56:50;7.30;;;6.32;;
9413;SDS011;4746;35.664;139.738;2023-10-19T09:59:32;7.15;;;5.97;;
9413;SDS011;4746;35.664;139.738;2023-10-19T10:02:10;8.02;;;6.85;;
9413;SDS011;4746;35.664;139.738;2023-10-19T10:04:49;8.65;;;6.47;;
9413;SDS011;4746;35.664;139.738;2023-10-19T10:07:16;7.95;;;6.30;;
9413;SDS011;4746;35.664;139.738;2023-10-19T10:09:44;7.28;;;5.53;;
9413;SDS011;4746;35.664;139.738;2023-10-19T10:15:00;7.03;;;6.25;;
9413;SDS011;4746;35.664;139.738;2023-10-19T10:17:36;7.95;;;7.32;;
9413;SDS011;4746;35.664;139.738;2023-10-19T10:22:45;7.93;;;7.22;;
9413;SDS011;4746;35.664;139.738;2023-10-19T10:25:57;8.35;;;7.30;;
9413;SDS011;4746;35.664;139.738;2023-10-19T10:28:25;7.72;;;6.88;;
9413;SDS011;4746;35.664;139.738;2023-10-19T10:31:09;7.10;;;6.43;;
9413;SDS011;4746;35.664;139.738;2023-10-19T10:33:51;8.63;;;7.80;;
9413;SDS011;4746;35.664;139.738;2023-10-19T10:36:20;8.18;;;7.28;;
9413;SDS011;4746;35.664;139.738;2023-10-19T10:38:49;8.43;;;7.32;;
9413;SDS011;4746;35.664;139.738;2023-10-19T10:41:24;6.07;;;5.55;;
9413;SDS011;4746;35.664;139.738;2023-10-19T10:43:57;7.18;;;6.53;;
9413;SDS011;4746;35.664;139.738;2023-10-19T10:46:26;6.32;;;5.75;;
9413;SDS011;4746;35.664;139.738;2023-10-19T10:48:57;7.75;;;6.60;;
9413;SDS011;4746;35.664;139.738;2023-10-19T10:51:28;8.38;;;7.30;;
9413;SDS011;4746;35.664;139.738;2023-10-19T10:53:57;8.23;;;7.38;;
9413;SDS011;4746;35.664;139.738;2023-10-19T10:56:25;9.63;;;7.40;;
9413;SDS011;4746;35.664;139.738;2023-10-19T10:58:55;7.20;;;6.45;;
9413;SDS011;4746;35.664;139.738;2023-10-19T11:01:27;7.05;;;6.35;;
9413;SDS011;4746;35.664;139.738;2023-10-19T11:04:05;6.43;;;5.88;;
9413;SDS011;4746;35.664;139.738;2023-10-19T11:09:17;7.40;;;6.70;;
9413;SDS011;4746;35.664;139.738;2023-10-19T11:11:47;7.15;;;6.45;;
9413;SDS011;4746;35.664;139.738;2023-10-19T11:14:17;7.45;;;6.68;;
9413;SDS011;4746;35.664;139.738;2023-10-19T11:16:47;7.03;;;6.35;;
9413;SDS011;4746;35.664;139.738;2023-10-19T11:19:15;7.57;;;6.72;;
9413;SDS011;4746;35.664;139.738;2023-10-19T11:21:52;7.30;;;6.47;;
9413;SDS011;4746;35.664;139.738;2023-10-19T11:24:24;10.00;;;6.30;;
9413;SDS011;4746;35.664;139.738;2023-10-19T11:26:55;7.03;;;6.38;;
9413;SDS011;4746;35.664;139.738;2023-10-19T11:29:23;7.15;;;6.38;;
9413;SDS011;4746;35.664;139.738;2023-10-19T11:31:57;7.78;;;6.55;;
9413;SDS011;4746;35.664;139.738;2023-10-19T11:34:26;6.85;;;6.35;;
9413;SDS011;4746;35.664;139.738;2023-10-19T11:36:58;7.05;;;6.40;;
9413;SDS011;4746;35.664;139.738;2023-10-19T11:39:26;7.90;;;7.15;;
9413;SDS011;4746;35.664;139.738;2023-10-19T11:41:55;7.50;;;6.78;;
9413;SDS011;4746;35.664;139.738;2023-10-19T11:44:22;7.57;;;6.88;;
9413;SDS011;4746;35.664;139.738;2023-10-19T11:46:50;7.20;;;6.50;;
9413;SDS011;4746;35.664;139.738;2023-10-19T11:49:17;7.20;;;6.53;;
9413;SDS011;4746;35.664;139.738;2023-10-19T11:51:45;6.65;;;6.07;;
9413;SDS011;4746;35.664;139.738;2023-10-19T11:54:13;7.95;;;7.32;;
9413;SDS011;4746;35.664;139.738;2023-10-19T11:56:43;7.55;;;6.82;;
9413;SDS011;4746;35.664;139.738;2023-10-19T11:59:11;7.25;;;6.65;;
9413;SDS011;4746;35.664;139.738;2023-10-19T12:01:39;8.13;;;7.43;;
9413;SDS011;4746;35.664;139.738;2023-10-19T12:04:08;8.77;;;7.88;;
9413;SDS011;4746;35.664;139.738;2023-10-19T12:07:08;8.15;;;7.50;;
9413;SDS011;4746;35.664;139.738;2023-10-19T12:09:40;7.38;;;6.78;;
9413;SDS011;4746;35.664;139.738;2023-10-19T12:12:08;7.25;;;6.65;;
9413;SDS011;4746;35.664;139.738;2023-10-19T12:14:38;8.38;;;7.60;;
9413;SDS011;4746;35.664;139.738;2023-10-19T12:17:06;8.05;;;7.25;;
9413;SDS011;4746;35.664;139.738;2023-10-19T12:19:34;7.32;;;6.72;;
9413;SDS011;4746;35.664;139.738;2023-10-19T12:22:01;7.78;;;7.18;;
9413;SDS011;4746;35.664;139.738;2023-10-19T12:24:29;7.93;;;7.22;;
9413;SDS011;4746;35.664;139.738;2023-10-19T12:26:56;8.27;;;7.45;;
9413;SDS011;4746;35.664;139.738;2023-10-19T12:29:25;7.35;;;6.65;;
9413;SDS011;4746;35.664;139.738;2023-10-19T12:31:53;6.68;;;6.13;;
9413;SDS011;4746;35.664;139.738;2023-10-19T12:34:20;9.43;;;7.88;;
9413;SDS011;4746;35.664;139.738;2023-10-19T12:36:48;8.38;;;7.18;;
9413;SDS011;4746;35.664;139.738;2023-10-19T12:39:17;7.20;;;6.60;;
9413;SDS011;4746;35.664;139.738;2023-10-19T12:42:03;8.20;;;7.43;;
9413;SDS011;4746;35.664;139.738;2023-10-19T12:44:35;7.60;;;7.00;;
9413;SDS011;4746;35.664;139.738;2023-10-19T12:47:09;7.80;;;7.10;;
9413;SDS011;4746;35.664;139.738;2023-10-19T12:49:41;7.40;;;6.80;;
9413;SDS011;4746;35.664;139.738;2023-10-19T12:52:13;8.02;;;7.28;;
9413;SDS011;4746;35.664;139.738;2023-10-19T12:54:41;7.30;;;6.70;;
9413;SDS011;4746;35.664;139.738;2023-10-19T12:57:11;7.88;;;7.28;;
9413;SDS011;4746;35.664;139.738;2023-10-19T12:59:38;8.15;;;7.30;;
9413;SDS011;4746;35.664;139.738;2023-10-19T13:02:09;8.00;;;7.25;;
9413;SDS011;4746;35.664;139.738;2023-10-19T13:04:40;6.82;;;6.22;;
9413;SDS011;4746;35.664;139.738;2023-10-19T13:07:08;8.00;;;7.32;;
9413;SDS011;4746;35.664;139.738;2023-10-19T13:09:38;7.60;;;6.80;;
9413;SDS011;4746;35.664;139.738;2023-10-19T13:12:06;8.02;;;7.32;;
9413;SDS011;4746;35.664;139.738;2023-10-19T13:14:34;8.27;;;7.45;;
9413;SDS011;4746;35.664;139.738;2023-10-19T13:17:02;7.63;;;6.93;;
9413;SDS011;4746;35.664;139.738;2023-10-19T13:19:29;8.50;;;7.75;;
9413;SDS011;4746;35.664;139.738;2023-10-19T13:21:57;7.80;;;7.20;;
9413;SDS011;4746;35.664;139.738;2023-10-19T13:24:30;8.18;;;7.15;;
9413;SDS011;4746;35.664;139.738;2023-10-19T13:27:06;7.72;;;7.00;;
9413;SDS011;4746;35.664;139.738;2023-10-19T13:29:34;10.35;;;7.72;;
9413;SDS011;4746;35.664;139.738;2023-10-19T13:32:05;7.50;;;7.00;;
9413;SDS011;4746;35.664;139.738;2023-10-19T13:34:32;7.97;;;7.28;;
9413;SDS011;4746;35.664;139.738;2023-10-19T13:37:02;7.18;;;6.57;;
9413;SDS011;4746;35.664;139.738;2023-10-19T13:39:29;8.05;;;7.25;;
9413;SDS011;4746;35.664;139.738;2023-10-19T13:41:57;9.15;;;7.63;;
9413;SDS011;4746;35.664;139.738;2023-10-19T13:44:25;8.25;;;7.50;;
9413;SDS011;4746;35.664;139.738;2023-10-19T13:46:54;8.63;;;7.80;;
9413;SDS011;4746;35.664;139.738;2023-10-19T13:49:21;8.15;;;7.55;;
9413;SDS011;4746;35.664;139.738;2023-10-19T13:51:49;8.82;;;7.93;;
9413;SDS011;4746;35.664;139.738;2023-10-19T13:54:18;8.43;;;7.63;;
9413;SDS011;4746;35.664;139.738;2023-10-19T13:56:45;8.82;;;7.78;;
9413;SDS011;4746;35.664;139.738;2023-10-19T13:59:15;7.65;;;6.93;;
9413;SDS011;4746;35.664;139.738;2023-10-19T14:01:43;8.68;;;7.88;;
9413;SDS011;4746;35.664;139.738;2023-10-19T14:04:10;9.82;;;7.35;;
9413;SDS011;4746;35.664;139.738;2023-10-19T14:06:39;9.32;;;7.50;;
9413;SDS011;4746;35.664;139.738;2023-10-19T14:09:08;7.88;;;7.07;;
9413;SDS011;4746;35.664;139.738;2023-10-19T14:11:38;8.55;;;7.80;;
9413;SDS011;4746;35.664;139.738;2023-10-19T14:14:06;8.35;;;7.65;;
9413;SDS011;4746;35.664;139.738;2023-10-19T14:16:36;8.18;;;7.38;;
9413;SDS011;4746;35.664;139.738;2023-10-19T14:19:04;7.70;;;7.03;;
9413;SDS011;4746;35.664;139.738;2023-10-19T14:21:32;7.97;;;7.38;;
9413;SDS011;4746;35.664;139.738;2023-10-19T14:24:03;7.68;;;7.07;;
9413;SDS011;4746;35.664;139.738;2023-10-19T14:26:33;9.32;;;8.45;;
9413;SDS011;4746;35.664;139.738;2023-10-19T14:29:04;8.48;;;7.68;;
9413;SDS011;4746;35.664;139.738;2023-10-19T14:31:31;8.02;;;7.43;;
9413;SDS011;4746;35.664;139.738;2023-10-19T14:33:59;8.88;;;8.07;;
9413;SDS011;4746;35.664;139.738;2023-10-19T14:36:27;8.30;;;7.30;;
9413;SDS011;4746;35.664;139.738;2023-10-19T14:38:55;8.43;;;7.72;;
9413;SDS011;4746;35.664;139.738;2023-10-19T14:41:23;8.50;;;7.57;;
9413;SDS011;4746;35.664;139.738;2023-10-19T14:43:50;9.23;;;7.72;;
9413;SDS011;4746;35.664;139.738;2023-10-19T14:46:18;9.07;;;8.35;;
9413;SDS011;4746;35.664;139.738;2023-10-19T14:48:46;8.65;;;7.70;;
9413;SDS011;4746;35.664;139.738;2023-10-19T14:51:13;8.23;;;7.32;;
9413;SDS011;4746;35.664;139.738;2023-10-19T14:53:41;8.80;;;8.15;;
9413;SDS011;4746;35.664;139.738;2023-10-19T14:56:09;8.93;;;8.18;;
9413;SDS011;4746;35.664;139.738;2023-10-19T14:58:38;8.93;;;8.20;;
9413;SDS011;4746;35.664;139.738;2023-10-19T15:01:06;10.05;;;9.10;;
9413;SDS011;4746;35.664;139.738;2023-10-19T15:03:40;13.88;;;9.10;;
9413;SDS011;4746;35.664;139.738;2023-10-19T15:06:09;9.18;;;8.40;;
9413;SDS011;4746;35.664;139.738;2023-10-19T15:08:39;11.68;;;8.38;;
9413;SDS011;4746;35.664;139.738;2023-10-19T15:11:07;9.00;;;8.20;;
9413;SDS011;4746;35.664;139.738;2023-10-19T15:13:34;9.38;;;8.52;;
9413;SDS011;4746;35.664;139.738;2023-10-19T15:16:08;8.65;;;7.95;;
9413;SDS011;4746;35.664;139.738;2023-10-19T15:18:37;8.90;;;8.13;;
9413;SDS011;4746;35.664;139.738;2023-10-19T15:21:05;8.95;;;8.15;;
9413;SDS011;4746;35.664;139.738;2023-10-19T15:23:34;9.05;;;8.25;;
9413;SDS011;4746;35.664;139.738;2023-10-19T15:26:02;11.07;;;9.70;;